Portada
METAR-TAF:

METAR-TAF

Aeroports :

Monticello, Kentucky, Estats Units d'Amèrica

latitud: 36-51-19N, longitud: 084-51-22W, altitud: 294 m

Observació

L'informe es va fer fa 9 minuts, a les 11:56 UTC
Vent 6 kt del Sud/Sud-Est
Temperatura 21°C
Humitat 83%
Pressió 1016 hPa
Visibilitat: 16.1 km
Cel clar

METAR: KEKQ 221156Z AUTO 16006KT 10SM CLR 21/18 A3001 RMK AO2 SLP151 T02060183 10206 20178 51014

Hora: 08:05 (12:05 UTC)


TAF: manca

Observacions i pronòstics meteorològics de més de 4000 aeroports (METAR i TAF).

Les estacions disponibles són els punts grocs i vermells al mapa.

Posi el ratolí al punt desitjat per veure el nom de l'estació.

Feu clic per veure les observacions i els pronòstics meteorològics.

Per canviar el mapa: feu clic els botons verds amb una creu de color negre per apropar; al botó verd amb un guió per allunyar la imatge; o en les fletxes verdes per a mapes adjacents.


METAR-TAF: